sensor_id;sensor_type;location;lat;lon;timestamp;P1;durP1;ratioP1;P2;durP2;ratioP2
78406;SDS011;67692;51.074;-1.790;2023-09-30T00:02:18;7.60;;;1.98;;
78406;SDS011;67692;51.074;-1.790;2023-09-30T00:04:45;9.48;;;1.90;;
78406;SDS011;67692;51.074;-1.790;2023-09-30T00:07:11;12.48;;;2.17;;
78406;SDS011;67692;51.074;-1.790;2023-09-30T00:09:39;12.50;;;2.13;;
78406;SDS011;67692;51.074;-1.790;2023-09-30T00:12:06;16.85;;;2.47;;
78406;SDS011;67692;51.074;-1.790;2023-09-30T00:14:32;11.75;;;2.10;;
78406;SDS011;67692;51.074;-1.790;2023-09-30T00:16:59;8.75;;;1.58;;
78406;SDS011;67692;51.074;-1.790;2023-09-30T00:19:26;10.93;;;1.60;;
78406;SDS011;67692;51.074;-1.790;2023-09-30T00:21:52;10.90;;;2.05;;
78406;SDS011;67692;51.074;-1.790;2023-09-30T00:24:19;11.77;;;1.77;;
78406;SDS011;67692;51.074;-1.790;2023-09-30T00:26:47;9.73;;;1.77;;
78406;SDS011;67692;51.074;-1.790;2023-09-30T00:29:15;5.40;;;1.60;;
78406;SDS011;67692;51.074;-1.790;2023-09-30T00:31:43;6.95;;;2.13;;
78406;SDS011;67692;51.074;-1.790;2023-09-30T00:34:09;9.57;;;1.88;;
78406;SDS011;67692;51.074;-1.790;2023-09-30T00:36:36;9.15;;;1.48;;
78406;SDS011;67692;51.074;-1.790;2023-09-30T00:39:02;4.80;;;1.52;;
78406;SDS011;67692;51.074;-1.790;2023-09-30T00:41:29;13.77;;;1.80;;
78406;SDS011;67692;51.074;-1.790;2023-09-30T00:43:57;11.10;;;1.70;;
78406;SDS011;67692;51.074;-1.790;2023-09-30T00:46:26;6.78;;;1.73;;
78406;SDS011;67692;51.074;-1.790;2023-09-30T00:48:55;8.63;;;2.17;;
78406;SDS011;67692;51.074;-1.790;2023-09-30T00:51:24;11.45;;;1.85;;
78406;SDS011;67692;51.074;-1.790;2023-09-30T00:53:52;7.95;;;1.77;;
78406;SDS011;67692;51.074;-1.790;2023-09-30T00:56:19;12.38;;;1.95;;
78406;SDS011;67692;51.074;-1.790;2023-09-30T00:58:49;8.45;;;1.65;;
78406;SDS011;67692;51.074;-1.790;2023-09-30T01:01:17;6.70;;;1.77;;
78406;SDS011;67692;51.074;-1.790;2023-09-30T01:03:45;12.95;;;2.38;;
78406;SDS011;67692;51.074;-1.790;2023-09-30T01:06:12;8.32;;;1.85;;
78406;SDS011;67692;51.074;-1.790;2023-09-30T01:08:39;5.85;;;1.75;;
78406;SDS011;67692;51.074;-1.790;2023-09-30T01:11:06;8.82;;;1.50;;
78406;SDS011;67692;51.074;-1.790;2023-09-30T01:13:34;6.80;;;1.30;;
78406;SDS011;67692;51.074;-1.790;2023-09-30T01:16:02;6.90;;;2.00;;
78406;SDS011;67692;51.074;-1.790;2023-09-30T01:18:31;6.90;;;1.63;;
78406;SDS011;67692;51.074;-1.790;2023-09-30T01:20:58;5.80;;;1.48;;
78406;SDS011;67692;51.074;-1.790;2023-09-30T01:23:29;9.45;;;1.17;;
78406;SDS011;67692;51.074;-1.790;2023-09-30T01:25:56;8.65;;;1.83;;
78406;SDS011;67692;51.074;-1.790;2023-09-30T01:28:24;9.07;;;1.35;;
78406;SDS011;67692;51.074;-1.790;2023-09-30T01:30:51;9.68;;;1.75;;
78406;SDS011;67692;51.074;-1.790;2023-09-30T01:33:18;14.25;;;1.65;;
78406;SDS011;67692;51.074;-1.790;2023-09-30T01:35:45;8.25;;;1.30;;
78406;SDS011;67692;51.074;-1.790;2023-09-30T01:38:11;8.27;;;1.77;;
78406;SDS011;67692;51.074;-1.790;2023-09-30T01:40:39;5.93;;;1.17;;
78406;SDS011;67692;51.074;-1.790;2023-09-30T01:43:07;8.43;;;1.55;;
78406;SDS011;67692;51.074;-1.790;2023-09-30T01:45:33;9.52;;;1.90;;
78406;SDS011;67692;51.074;-1.790;2023-09-30T01:48:00;6.32;;;1.35;;
78406;SDS011;67692;51.074;-1.790;2023-09-30T01:50:27;8.02;;;1.48;;
78406;SDS011;67692;51.074;-1.790;2023-09-30T01:52:54;5.20;;;1.60;;
78406;SDS011;67692;51.074;-1.790;2023-09-30T01:55:20;9.45;;;1.60;;
78406;SDS011;67692;51.074;-1.790;2023-09-30T01:57:48;5.43;;;1.23;;
78406;SDS011;67692;51.074;-1.790;2023-09-30T02:00:15;6.05;;;1.25;;
78406;SDS011;67692;51.074;-1.790;2023-09-30T02:02:42;10.02;;;1.70;;
78406;SDS011;67692;51.074;-1.790;2023-09-30T02:05:09;9.80;;;1.50;;
78406;SDS011;67692;51.074;-1.790;2023-09-30T02:07:36;8.10;;;1.10;;
78406;SDS011;67692;51.074;-1.790;2023-09-30T02:10:03;8.38;;;1.60;;
78406;SDS011;67692;51.074;-1.790;2023-09-30T02:12:30;6.13;;;1.40;;
78406;SDS011;67692;51.074;-1.790;2023-09-30T02:14:58;11.65;;;1.52;;
78406;SDS011;67692;51.074;-1.790;2023-09-30T02:17:25;11.95;;;2.08;;
78406;SDS011;67692;51.074;-1.790;2023-09-30T02:19:51;8.00;;;1.65;;
78406;SDS011;67692;51.074;-1.790;2023-09-30T02:22:20;9.07;;;1.65;;
78406;SDS011;67692;51.074;-1.790;2023-09-30T02:24:46;6.70;;;1.15;;
78406;SDS011;67692;51.074;-1.790;2023-09-30T02:27:14;5.00;;;1.60;;
78406;SDS011;67692;51.074;-1.790;2023-09-30T02:29:40;9.13;;;1.45;;
78406;SDS011;67692;51.074;-1.790;2023-09-30T02:32:08;7.38;;;1.52;;
78406;SDS011;67692;51.074;-1.790;2023-09-30T02:34:35;11.00;;;2.00;;
78406;SDS011;67692;51.074;-1.790;2023-09-30T02:37:03;7.72;;;1.70;;
78406;SDS011;67692;51.074;-1.790;2023-09-30T02:39:29;11.60;;;1.77;;
78406;SDS011;67692;51.074;-1.790;2023-09-30T02:41:56;5.25;;;1.23;;
78406;SDS011;67692;51.074;-1.790;2023-09-30T02:44:23;7.82;;;1.63;;
78406;SDS011;67692;51.074;-1.790;2023-09-30T02:46:49;6.30;;;1.80;;
78406;SDS011;67692;51.074;-1.790;2023-09-30T02:49:17;7.35;;;1.17;;
78406;SDS011;67692;51.074;-1.790;2023-09-30T02:51:44;5.97;;;1.23;;
78406;SDS011;67692;51.074;-1.790;2023-09-30T02:54:10;11.52;;;1.38;;
78406;SDS011;67692;51.074;-1.790;2023-09-30T02:56:40;8.60;;;1.48;;
78406;SDS011;67692;51.074;-1.790;2023-09-30T02:59:07;6.38;;;1.50;;
78406;SDS011;67692;51.074;-1.790;2023-09-30T03:01:33;4.25;;;1.05;;
78406;SDS011;67692;51.074;-1.790;2023-09-30T03:04:00;9.95;;;1.60;;
78406;SDS011;67692;51.074;-1.790;2023-09-30T03:06:28;6.13;;;1.60;;
78406;SDS011;67692;51.074;-1.790;2023-09-30T03:08:55;7.80;;;1.42;;
78406;SDS011;67692;51.074;-1.790;2023-09-30T03:11:21;8.70;;;1.40;;
78406;SDS011;67692;51.074;-1.790;2023-09-30T03:13:48;6.97;;;1.75;;
78406;SDS011;67692;51.074;-1.790;2023-09-30T03:16:15;8.88;;;1.80;;
78406;SDS011;67692;51.074;-1.790;2023-09-30T03:18:42;5.57;;;1.40;;
78406;SDS011;67692;51.074;-1.790;2023-09-30T03:21:12;8.88;;;1.65;;
78406;SDS011;67692;51.074;-1.790;2023-09-30T03:23:41;10.23;;;1.90;;
78406;SDS011;67692;51.074;-1.790;2023-09-30T03:26:08;7.72;;;1.55;;
78406;SDS011;67692;51.074;-1.790;2023-09-30T03:28:35;9.27;;;1.80;;
78406;SDS011;67692;51.074;-1.790;2023-09-30T03:31:02;9.00;;;1.90;;
78406;SDS011;67692;51.074;-1.790;2023-09-30T03:33:30;9.10;;;1.48;;
78406;SDS011;67692;51.074;-1.790;2023-09-30T03:35:56;7.78;;;1.63;;
78406;SDS011;67692;51.074;-1.790;2023-09-30T03:38:25;3.88;;;1.20;;
78406;SDS011;67692;51.074;-1.790;2023-09-30T03:40:53;11.82;;;1.63;;
78406;SDS011;67692;51.074;-1.790;2023-09-30T03:43:20;7.85;;;1.58;;
78406;SDS011;67692;51.074;-1.790;2023-09-30T03:45:48;6.68;;;1.70;;
78406;SDS011;67692;51.074;-1.790;2023-09-30T03:48:15;7.63;;;1.52;;
78406;SDS011;67692;51.074;-1.790;2023-09-30T03:50:43;6.65;;;1.63;;
78406;SDS011;67692;51.074;-1.790;2023-09-30T03:53:10;10.38;;;1.73;;
78406;SDS011;67692;51.074;-1.790;2023-09-30T03:55:37;9.60;;;1.80;;
78406;SDS011;67692;51.074;-1.790;2023-09-30T03:58:05;8.15;;;1.80;;
78406;SDS011;67692;51.074;-1.790;2023-09-30T04:00:32;10.40;;;1.52;;
78406;SDS011;67692;51.074;-1.790;2023-09-30T04:02:58;11.77;;;1.92;;
78406;SDS011;67692;51.074;-1.790;2023-09-30T04:05:25;5.90;;;1.60;;
78406;SDS011;67692;51.074;-1.790;2023-09-30T04:07:54;10.35;;;2.08;;
78406;SDS011;67692;51.074;-1.790;2023-09-30T04:10:21;5.25;;;1.45;;
78406;SDS011;67692;51.074;-1.790;2023-09-30T04:12:48;6.82;;;1.45;;
78406;SDS011;67692;51.074;-1.790;2023-09-30T04:15:16;8.68;;;1.80;;
78406;SDS011;67692;51.074;-1.790;2023-09-30T04:17:43;7.20;;;1.60;;
78406;SDS011;67692;51.074;-1.790;2023-09-30T04:20:10;7.13;;;1.83;;
78406;SDS011;67692;51.074;-1.790;2023-09-30T04:22:41;10.63;;;2.05;;
78406;SDS011;67692;51.074;-1.790;2023-09-30T04:25:11;7.25;;;1.85;;
78406;SDS011;67692;51.074;-1.790;2023-09-30T04:27:39;11.27;;;2.15;;
78406;SDS011;67692;51.074;-1.790;2023-09-30T04:30:06;10.00;;;1.63;;
78406;SDS011;67692;51.074;-1.790;2023-09-30T04:32:35;10.50;;;2.03;;
78406;SDS011;67692;51.074;-1.790;2023-09-30T04:35:03;8.52;;;1.65;;
78406;SDS011;67692;51.074;-1.790;2023-09-30T04:37:30;12.13;;;2.30;;
78406;SDS011;67692;51.074;-1.790;2023-09-30T04:39:57;4.65;;;1.52;;
78406;SDS011;67692;51.074;-1.790;2023-09-30T04:42:23;7.85;;;1.80;;
78406;SDS011;67692;51.074;-1.790;2023-09-30T04:44:51;9.70;;;1.70;;
78406;SDS011;67692;51.074;-1.790;2023-09-30T04:47:19;7.10;;;1.48;;
78406;SDS011;67692;51.074;-1.790;2023-09-30T04:49:48;9.02;;;2.25;;
78406;SDS011;67692;51.074;-1.790;2023-09-30T04:52:16;6.63;;;1.70;;
78406;SDS011;67692;51.074;-1.790;2023-09-30T04:54:42;9.75;;;2.17;;
78406;SDS011;67692;51.074;-1.790;2023-09-30T04:57:10;9.00;;;1.70;;
78406;SDS011;67692;51.074;-1.790;2023-09-30T04:59:37;6.50;;;1.67;;
78406;SDS011;67692;51.074;-1.790;2023-09-30T05:02:04;5.63;;;1.50;;
78406;SDS011;67692;51.074;-1.790;2023-09-30T05:04:30;8.25;;;1.65;;
78406;SDS011;67692;51.074;-1.790;2023-09-30T05:06:58;8.25;;;1.85;;
78406;SDS011;67692;51.074;-1.790;2023-09-30T05:09:25;6.75;;;1.80;;
78406;SDS011;67692;51.074;-1.790;2023-09-30T05:11:53;5.22;;;1.50;;
78406;SDS011;67692;51.074;-1.790;2023-09-30T05:14:20;9.05;;;1.77;;
78406;SDS011;67692;51.074;-1.790;2023-09-30T05:16:47;10.50;;;1.83;;
78406;SDS011;67692;51.074;-1.790;2023-09-30T05:19:13;11.27;;;1.80;;
78406;SDS011;67692;51.074;-1.790;2023-09-30T05:21:40;6.35;;;1.75;;
78406;SDS011;67692;51.074;-1.790;2023-09-30T05:24:08;6.40;;;1.55;;
78406;SDS011;67692;51.074;-1.790;2023-09-30T05:26:36;11.77;;;2.05;;
78406;SDS011;67692;51.074;-1.790;2023-09-30T05:29:02;7.75;;;1.40;;
78406;SDS011;67692;51.074;-1.790;2023-09-30T05:31:29;4.28;;;1.20;;
78406;SDS011;67692;51.074;-1.790;2023-09-30T05:33:56;7.80;;;1.52;;
78406;SDS011;67692;51.074;-1.790;2023-09-30T05:36:22;3.17;;;1.25;;
78406;SDS011;67692;51.074;-1.790;2023-09-30T05:38:49;9.52;;;1.83;;
78406;SDS011;67692;51.074;-1.790;2023-09-30T05:41:17;7.47;;;1.52;;
78406;SDS011;67692;51.074;-1.790;2023-09-30T05:43:45;7.32;;;1.50;;
78406;SDS011;67692;51.074;-1.790;2023-09-30T05:46:12;5.20;;;1.58;;
78406;SDS011;67692;51.074;-1.790;2023-09-30T05:48:39;6.32;;;1.38;;
78406;SDS011;67692;51.074;-1.790;2023-09-30T05:51:06;8.88;;;1.85;;
78406;SDS011;67692;51.074;-1.790;2023-09-30T05:53:33;6.32;;;1.48;;
78406;SDS011;67692;51.074;-1.790;2023-09-30T05:56:01;11.18;;;1.65;;
78406;SDS011;67692;51.074;-1.790;2023-09-30T05:58:29;8.70;;;1.58;;
78406;SDS011;67692;51.074;-1.790;2023-09-30T06:00:55;5.60;;;1.63;;
78406;SDS011;67692;51.074;-1.790;2023-09-30T06:03:23;6.65;;;2.10;;
78406;SDS011;67692;51.074;-1.790;2023-09-30T06:05:49;7.10;;;1.45;;
78406;SDS011;67692;51.074;-1.790;2023-09-30T06:08:16;5.30;;;2.08;;
78406;SDS011;67692;51.074;-1.790;2023-09-30T06:10:43;7.22;;;1.48;;
78406;SDS011;67692;51.074;-1.790;2023-09-30T06:13:10;5.90;;;1.70;;
78406;SDS011;67692;51.074;-1.790;2023-09-30T06:15:38;9.50;;;1.67;;
78406;SDS011;67692;51.074;-1.790;2023-09-30T06:18:06;6.95;;;1.70;;
78406;SDS011;67692;51.074;-1.790;2023-09-30T06:20:34;6.93;;;1.90;;
78406;SDS011;67692;51.074;-1.790;2023-09-30T06:23:02;4.65;;;1.48;;
78406;SDS011;67692;51.074;-1.790;2023-09-30T06:25:28;9.05;;;1.80;;
78406;SDS011;67692;51.074;-1.790;2023-09-30T06:27:57;5.88;;;1.50;;
78406;SDS011;67692;51.074;-1.790;2023-09-30T06:30:24;8.15;;;1.40;;
78406;SDS011;67692;51.074;-1.790;2023-09-30T06:32:55;9.18;;;1.60;;
78406;SDS011;67692;51.074;-1.790;2023-09-30T06:35:22;4.75;;;1.33;;
78406;SDS011;67692;51.074;-1.790;2023-09-30T06:37:49;4.38;;;1.02;;
78406;SDS011;67692;51.074;-1.790;2023-09-30T06:40:16;7.45;;;1.38;;
78406;SDS011;67692;51.074;-1.790;2023-09-30T06:42:44;7.75;;;1.40;;
78406;SDS011;67692;51.074;-1.790;2023-09-30T06:45:11;6.82;;;1.77;;
78406;SDS011;67692;51.074;-1.790;2023-09-30T06:47:38;7.20;;;1.48;;
78406;SDS011;67692;51.074;-1.790;2023-09-30T06:50:09;9.07;;;1.83;;
78406;SDS011;67692;51.074;-1.790;2023-09-30T06:52:41;5.78;;;1.50;;
78406;SDS011;67692;51.074;-1.790;2023-09-30T06:55:10;7.63;;;1.67;;
78406;SDS011;67692;51.074;-1.790;2023-09-30T06:57:39;6.47;;;1.40;;
78406;SDS011;67692;51.074;-1.790;2023-09-30T07:00:06;6.47;;;1.42;;
78406;SDS011;67692;51.074;-1.790;2023-09-30T07:02:34;7.60;;;1.73;;
78406;SDS011;67692;51.074;-1.790;2023-09-30T07:05:02;7.25;;;1.75;;
78406;SDS011;67692;51.074;-1.790;2023-09-30T07:07:33;10.27;;;1.85;;
78406;SDS011;67692;51.074;-1.790;2023-09-30T07:10:00;7.32;;;1.42;;
78406;SDS011;67692;51.074;-1.790;2023-09-30T07:12:26;9.68;;;1.33;;
78406;SDS011;67692;51.074;-1.790;2023-09-30T07:14:53;6.47;;;1.38;;
78406;SDS011;67692;51.074;-1.790;2023-09-30T07:17:20;6.00;;;1.40;;
78406;SDS011;67692;51.074;-1.790;2023-09-30T07:19:46;6.75;;;1.60;;
78406;SDS011;67692;51.074;-1.790;2023-09-30T07:22:13;7.43;;;1.58;;
78406;SDS011;67692;51.074;-1.790;2023-09-30T07:24:41;8.40;;;1.42;;
78406;SDS011;67692;51.074;-1.790;2023-09-30T07:27:08;5.75;;;1.17;;
78406;SDS011;67692;51.074;-1.790;2023-09-30T07:29:35;4.88;;;1.40;;
78406;SDS011;67692;51.074;-1.790;2023-09-30T07:32:02;8.25;;;1.77;;
78406;SDS011;67692;51.074;-1.790;2023-09-30T07:34:29;5.95;;;1.55;;
78406;SDS011;67692;51.074;-1.790;2023-09-30T07:36:55;4.97;;;1.27;;
78406;SDS011;67692;51.074;-1.790;2023-09-30T07:39:22;8.95;;;1.73;;
78406;SDS011;67692;51.074;-1.790;2023-09-30T07:41:50;11.43;;;1.90;;
78406;SDS011;67692;51.074;-1.790;2023-09-30T07:44:17;6.93;;;1.42;;
78406;SDS011;67692;51.074;-1.790;2023-09-30T07:46:43;10.90;;;1.73;;
78406;SDS011;67692;51.074;-1.790;2023-09-30T07:49:10;4.05;;;1.00;;
78406;SDS011;67692;51.074;-1.790;2023-09-30T07:51:37;8.48;;;2.00;;
78406;SDS011;67692;51.074;-1.790;2023-09-30T07:54:05;5.78;;;1.52;;
78406;SDS011;67692;51.074;-1.790;2023-09-30T07:56:32;8.70;;;1.50;;
78406;SDS011;67692;51.074;-1.790;2023-09-30T07:59:00;9.40;;;1.52;;
78406;SDS011;67692;51.074;-1.790;2023-09-30T08:01:27;8.75;;;1.55;;
78406;SDS011;67692;51.074;-1.790;2023-09-30T08:03:55;8.15;;;1.25;;
78406;SDS011;67692;51.074;-1.790;2023-09-30T08:06:22;5.78;;;1.73;;
78406;SDS011;67692;51.074;-1.790;2023-09-30T08:08:48;12.23;;;1.70;;
78406;SDS011;67692;51.074;-1.790;2023-09-30T08:11:15;10.70;;;1.40;;
78406;SDS011;67692;51.074;-1.790;2023-09-30T08:13:45;5.70;;;1.10;;
78406;SDS011;67692;51.074;-1.790;2023-09-30T08:16:14;6.97;;;1.23;;
78406;SDS011;67692;51.074;-1.790;2023-09-30T08:18:40;14.85;;;1.95;;
78406;SDS011;67692;51.074;-1.790;2023-09-30T08:21:08;5.72;;;1.10;;
78406;SDS011;67692;51.074;-1.790;2023-09-30T08:23:36;8.30;;;1.17;;
78406;SDS011;67692;51.074;-1.790;2023-09-30T08:26:04;7.38;;;1.20;;
78406;SDS011;67692;51.074;-1.790;2023-09-30T08:28:30;7.22;;;1.05;;
78406;SDS011;67692;51.074;-1.790;2023-09-30T08:31:01;8.50;;;1.20;;
78406;SDS011;67692;51.074;-1.790;2023-09-30T08:33:29;8.57;;;1.48;;
78406;SDS011;67692;51.074;-1.790;2023-09-30T08:35:56;6.40;;;1.17;;
78406;SDS011;67692;51.074;-1.790;2023-09-30T08:38:23;8.63;;;1.20;;
78406;SDS011;67692;51.074;-1.790;2023-09-30T08:40:51;8.48;;;1.27;;
78406;SDS011;67692;51.074;-1.790;2023-09-30T08:43:18;11.68;;;1.27;;
78406;SDS011;67692;51.074;-1.790;2023-09-30T08:45:52;6.10;;;0.90;;
78406;SDS011;67692;51.074;-1.790;2023-09-30T08:48:20;6.95;;;1.55;;
78406;SDS011;67692;51.074;-1.790;2023-09-30T08:50:51;6.18;;;1.10;;
78406;SDS011;67692;51.074;-1.790;2023-09-30T08:53:19;10.95;;;1.33;;
78406;SDS011;67692;51.074;-1.790;2023-09-30T08:55:46;9.52;;;1.30;;
78406;SDS011;67692;51.074;-1.790;2023-09-30T08:58:13;8.48;;;1.45;;
78406;SDS011;67692;51.074;-1.790;2023-09-30T09:00:41;5.25;;;0.88;;
78406;SDS011;67692;51.074;-1.790;2023-09-30T09:03:10;10.45;;;1.73;;
78406;SDS011;67692;51.074;-1.790;2023-09-30T09:05:36;7.05;;;1.95;;
78406;SDS011;67692;51.074;-1.790;2023-09-30T09:08:05;12.05;;;3.75;;
78406;SDS011;67692;51.074;-1.790;2023-09-30T09:10:31;14.48;;;2.72;;
78406;SDS011;67692;51.074;-1.790;2023-09-30T09:12:58;8.93;;;2.40;;
78406;SDS011;67692;51.074;-1.790;2023-09-30T09:15:26;6.47;;;1.48;;
78406;SDS011;67692;51.074;-1.790;2023-09-30T09:17:53;8.40;;;1.50;;
78406;SDS011;67692;51.074;-1.790;2023-09-30T09:20:21;9.32;;;2.00;;
78406;SDS011;67692;51.074;-1.790;2023-09-30T09:22:49;11.18;;;2.88;;
78406;SDS011;67692;51.074;-1.790;2023-09-30T09:25:20;13.85;;;4.93;;
78406;SDS011;67692;51.074;-1.790;2023-09-30T09:27:48;17.52;;;5.22;;
78406;SDS011;67692;51.074;-1.790;2023-09-30T09:30:15;17.65;;;4.78;;
78406;SDS011;67692;51.074;-1.790;2023-09-30T09:32:52;12.48;;;3.72;;
78406;SDS011;67692;51.074;-1.790;2023-09-30T09:35:30;11.77;;;3.50;;
78406;SDS011;67692;51.074;-1.790;2023-09-30T09:37:58;10.77;;;2.38;;
78406;SDS011;67692;51.074;-1.790;2023-09-30T09:40:28;11.02;;;1.85;;
78406;SDS011;67692;51.074;-1.790;2023-09-30T09:42:56;9.30;;;1.73;;
78406;SDS011;67692;51.074;-1.790;2023-09-30T09:45:24;11.68;;;1.55;;
78406;SDS011;67692;51.074;-1.790;2023-09-30T09:47:52;5.97;;;1.38;;
78406;SDS011;67692;51.074;-1.790;2023-09-30T09:50:19;8.10;;;1.73;;
78406;SDS011;67692;51.074;-1.790;2023-09-30T09:52:48;7.55;;;1.02;;
78406;SDS011;67692;51.074;-1.790;2023-09-30T09:55:16;9.52;;;1.15;;
78406;SDS011;67692;51.074;-1.790;2023-09-30T09:57:45;9.70;;;1.80;;
78406;SDS011;67692;51.074;-1.790;2023-09-30T10:00:12;3.85;;;0.98;;
78406;SDS011;67692;51.074;-1.790;2023-09-30T10:02:41;4.63;;;1.20;;
78406;SDS011;67692;51.074;-1.790;2023-09-30T10:05:08;4.80;;;1.02;;
78406;SDS011;67692;51.074;-1.790;2023-09-30T10:07:37;7.47;;;1.10;;
78406;SDS011;67692;51.074;-1.790;2023-09-30T10:10:12;6.82;;;1.00;;
78406;SDS011;67692;51.074;-1.790;2023-09-30T10:12:42;10.57;;;1.48;;
78406;SDS011;67692;51.074;-1.790;2023-09-30T10:18:05;9.35;;;1.70;;
78406;SDS011;67692;51.074;-1.790;2023-09-30T10:20:33;7.07;;;1.73;;
78406;SDS011;67692;51.074;-1.790;2023-09-30T10:23:19;6.95;;;1.20;;
78406;SDS011;67692;51.074;-1.790;2023-09-30T10:25:47;9.00;;;1.55;;
78406;SDS011;67692;51.074;-1.790;2023-09-30T10:28:33;6.18;;;0.90;;
78406;SDS011;67692;51.074;-1.790;2023-09-30T10:31:09;6.47;;;0.95;;
78406;SDS011;67692;51.074;-1.790;2023-09-30T10:36:38;5.65;;;1.13;;
78406;SDS011;67692;51.074;-1.790;2023-09-30T10:39:06;6.25;;;1.10;;
78406;SDS011;67692;51.074;-1.790;2023-09-30T10:41:50;5.22;;;1.00;;
78406;SDS011;67692;51.074;-1.790;2023-09-30T10:44:32;11.55;;;1.38;;
78406;SDS011;67692;51.074;-1.790;2023-09-30T10:47:33;5.32;;;1.20;;
78406;SDS011;67692;51.074;-1.790;2023-09-30T10:50:03;5.90;;;1.25;;
78406;SDS011;67692;51.074;-1.790;2023-09-30T10:52:50;7.97;;;1.55;;
78406;SDS011;67692;51.074;-1.790;2023-09-30T10:55:19;8.40;;;1.90;;
78406;SDS011;67692;51.074;-1.790;2023-09-30T10:57:50;8.27;;;1.92;;
78406;SDS011;67692;51.074;-1.790;2023-09-30T11:00:17;10.18;;;1.25;;
78406;SDS011;67692;51.074;-1.790;2023-09-30T11:02:49;4.68;;;1.30;;
78406;SDS011;67692;51.074;-1.790;2023-09-30T11:05:18;9.80;;;1.77;;
78406;SDS011;67692;51.074;-1.790;2023-09-30T11:07:47;11.68;;;1.35;;
78406;SDS011;67692;51.074;-1.790;2023-09-30T11:10:16;7.88;;;1.77;;
78406;SDS011;67692;51.074;-1.790;2023-09-30T11:12:53;9.32;;;1.90;;
78406;SDS011;67692;51.074;-1.790;2023-09-30T11:15:20;9.32;;;1.77;;
78406;SDS011;67692;51.074;-1.790;2023-09-30T11:17:47;5.75;;;1.20;;
78406;SDS011;67692;51.074;-1.790;2023-09-30T11:20:15;5.22;;;1.20;;
78406;SDS011;67692;51.074;-1.790;2023-09-30T11:22:43;8.23;;;1.70;;
78406;SDS011;67692;51.074;-1.790;2023-09-30T11:25:14;11.68;;;2.42;;
78406;SDS011;67692;51.074;-1.790;2023-09-30T11:27:43;8.55;;;1.25;;
78406;SDS011;67692;51.074;-1.790;2023-09-30T11:30:10;8.52;;;2.83;;
78406;SDS011;67692;51.074;-1.790;2023-09-30T11:32:38;5.78;;;0.90;;
78406;SDS011;67692;51.074;-1.790;2023-09-30T11:35:08;9.18;;;1.23;;
78406;SDS011;67692;51.074;-1.790;2023-09-30T11:37:37;9.57;;;1.17;;
78406;SDS011;67692;51.074;-1.790;2023-09-30T11:40:10;6.28;;;1.17;;
78406;SDS011;67692;51.074;-1.790;2023-09-30T11:42:38;9.27;;;1.17;;
78406;SDS011;67692;51.074;-1.790;2023-09-30T11:45:18;9.05;;;1.23;;
78406;SDS011;67692;51.074;-1.790;2023-09-30T11:47:45;7.05;;;1.25;;
78406;SDS011;67692;51.074;-1.790;2023-09-30T11:50:13;9.05;;;1.40;;
78406;SDS011;67692;51.074;-1.790;2023-09-30T11:52:45;10.23;;;1.42;;
78406;SDS011;67692;51.074;-1.790;2023-09-30T11:55:12;9.05;;;0.90;;
78406;SDS011;67692;51.074;-1.790;2023-09-30T11:57:41;11.50;;;1.15;;
78406;SDS011;67692;51.074;-1.790;2023-09-30T12:00:08;9.13;;;1.50;;
78406;SDS011;67692;51.074;-1.790;2023-09-30T12:02:38;7.53;;;0.90;;
78406;SDS011;67692;51.074;-1.790;2023-09-30T12:05:07;8.05;;;1.00;;
78406;SDS011;67692;51.074;-1.790;2023-09-30T12:07:36;11.35;;;2.15;;
78406;SDS011;67692;51.074;-1.790;2023-09-30T12:10:08;6.95;;;1.08;;
78406;SDS011;67692;51.074;-1.790;2023-09-30T12:12:35;7.63;;;1.13;;
78406;SDS011;67692;51.074;-1.790;2023-09-30T12:15:05;6.22;;;1.10;;
78406;SDS011;67692;51.074;-1.790;2023-09-30T12:17:34;8.95;;;1.20;;
78406;SDS011;67692;51.074;-1.790;2023-09-30T12:20:02;7.53;;;1.30;;
78406;SDS011;67692;51.074;-1.790;2023-09-30T12:22:30;6.45;;;1.02;;
78406;SDS011;67692;51.074;-1.790;2023-09-30T12:24:56;11.48;;;1.67;;
78406;SDS011;67692;51.074;-1.790;2023-09-30T12:27:24;7.93;;;1.20;;
78406;SDS011;67692;51.074;-1.790;2023-09-30T12:29:52;10.88;;;1.40;;
78406;SDS011;67692;51.074;-1.790;2023-09-30T12:32:20;7.65;;;1.75;;
78406;SDS011;67692;51.074;-1.790;2023-09-30T12:34:48;7.55;;;1.40;;
78406;SDS011;67692;51.074;-1.790;2023-09-30T12:37:14;5.75;;;1.10;;
78406;SDS011;67692;51.074;-1.790;2023-09-30T12:39:41;8.95;;;1.33;;
78406;SDS011;67692;51.074;-1.790;2023-09-30T12:42:10;12.05;;;1.48;;
78406;SDS011;67692;51.074;-1.790;2023-09-30T12:44:39;9.60;;;1.42;;
78406;SDS011;67692;51.074;-1.790;2023-09-30T12:47:05;7.03;;;1.08;;
78406;SDS011;67692;51.074;-1.790;2023-09-30T12:49:32;8.82;;;1.42;;
78406;SDS011;67692;51.074;-1.790;2023-09-30T12:51:59;10.77;;;1.20;;
78406;SDS011;67692;51.074;-1.790;2023-09-30T12:54:26;8.60;;;1.48;;
78406;SDS011;67692;51.074;-1.790;2023-09-30T12:56:53;15.80;;;1.83;;
78406;SDS011;67692;51.074;-1.790;2023-09-30T12:59:19;10.77;;;2.15;;
78406;SDS011;67692;51.074;-1.790;2023-09-30T13:01:51;8.90;;;1.23;;
78406;SDS011;67692;51.074;-1.790;2023-09-30T13:04:18;6.53;;;1.00;;
78406;SDS011;67692;51.074;-1.790;2023-09-30T13:06:45;6.53;;;1.35;;
78406;SDS011;67692;51.074;-1.790;2023-09-30T13:09:14;7.85;;;2.00;;
78406;SDS011;67692;51.074;-1.790;2023-09-30T13:11:41;10.40;;;0.93;;
78406;SDS011;67692;51.074;-1.790;2023-09-30T13:14:07;5.78;;;0.88;;
78406;SDS011;67692;51.074;-1.790;2023-09-30T13:16:34;6.72;;;1.00;;
78406;SDS011;67692;51.074;-1.790;2023-09-30T13:19:02;8.00;;;1.20;;
78406;SDS011;67692;51.074;-1.790;2023-09-30T13:21:29;9.18;;;1.33;;
78406;SDS011;67692;51.074;-1.790;2023-09-30T13:23:56;5.93;;;1.13;;
78406;SDS011;67692;51.074;-1.790;2023-09-30T13:26:22;9.98;;;1.00;;
78406;SDS011;67692;51.074;-1.790;2023-09-30T13:28:50;6.68;;;1.10;;
78406;SDS011;67692;51.074;-1.790;2023-09-30T13:31:17;8.60;;;2.17;;
78406;SDS011;67692;51.074;-1.790;2023-09-30T13:33:44;12.80;;;2.17;;
78406;SDS011;67692;51.074;-1.790;2023-09-30T13:36:14;10.60;;;1.42;;
78406;SDS011;67692;51.074;-1.790;2023-09-30T13:38:40;11.15;;;1.35;;
78406;SDS011;67692;51.074;-1.790;2023-09-30T13:41:07;6.60;;;1.40;;
78406;SDS011;67692;51.074;-1.790;2023-09-30T13:43:33;4.90;;;1.00;;
78406;SDS011;67692;51.074;-1.790;2023-09-30T13:46:02;10.20;;;1.25;;
78406;SDS011;67692;51.074;-1.790;2023-09-30T13:48:31;7.25;;;1.20;;
78406;SDS011;67692;51.074;-1.790;2023-09-30T13:51:03;11.73;;;1.25;;
78406;SDS011;67692;51.074;-1.790;2023-09-30T13:53:31;7.97;;;1.30;;
78406;SDS011;67692;51.074;-1.790;2023-09-30T13:55:58;7.85;;;1.70;;
78406;SDS011;67692;51.074;-1.790;2023-09-30T13:58:25;6.93;;;1.52;;
78406;SDS011;67692;51.074;-1.790;2023-09-30T14:00:52;5.20;;;0.90;;
78406;SDS011;67692;51.074;-1.790;2023-09-30T14:03:18;8.52;;;1.73;;
78406;SDS011;67692;51.074;-1.790;2023-09-30T14:05:45;11.27;;;1.58;;
78406;SDS011;67692;51.074;-1.790;2023-09-30T14:08:12;6.53;;;1.25;;
78406;SDS011;67692;51.074;-1.790;2023-09-30T14:10:40;4.97;;;1.08;;
78406;SDS011;67692;51.074;-1.790;2023-09-30T14:13:09;9.68;;;1.00;;
78406;SDS011;67692;51.074;-1.790;2023-09-30T14:15:36;11.93;;;1.17;;
78406;SDS011;67692;51.074;-1.790;2023-09-30T14:18:03;9.63;;;1.52;;
78406;SDS011;67692;51.074;-1.790;2023-09-30T14:20:30;8.95;;;1.10;;
78406;SDS011;67692;51.074;-1.790;2023-09-30T14:22:58;9.27;;;1.30;;
78406;SDS011;67692;51.074;-1.790;2023-09-30T14:25:25;9.52;;;1.40;;
78406;SDS011;67692;51.074;-1.790;2023-09-30T14:27:53;10.05;;;1.85;;
78406;SDS011;67692;51.074;-1.790;2023-09-30T14:30:21;8.25;;;1.70;;
78406;SDS011;67692;51.074;-1.790;2023-09-30T14:32:49;9.80;;;2.45;;
78406;SDS011;67692;51.074;-1.790;2023-09-30T14:35:16;10.43;;;1.75;;
78406;SDS011;67692;51.074;-1.790;2023-09-30T14:37:44;6.63;;;1.50;;
78406;SDS011;67692;51.074;-1.790;2023-09-30T14:40:10;14.07;;;1.35;;
78406;SDS011;67692;51.074;-1.790;2023-09-30T14:42:38;10.25;;;1.92;;